createdAt,value
2018-07-14T00:00:29.997Z,8.57
2018-07-14T00:02:59.800Z,8.50
2018-07-14T00:05:29.576Z,8.50
2018-07-14T00:07:59.316Z,9.47
2018-07-14T00:10:29.057Z,14.03
2018-07-14T00:12:58.716Z,7.83
2018-07-14T00:15:28.418Z,8.13
2018-07-14T00:17:58.165Z,8.80
2018-07-14T00:20:27.842Z,8.50
2018-07-14T00:22:57.229Z,8.37
2018-07-14T00:25:32.183Z,11.63
2018-07-14T00:28:01.922Z,10.80
2018-07-14T00:30:31.658Z,9.60
2018-07-14T00:33:01.359Z,9.00
2018-07-14T00:35:31.075Z,16.33
2018-07-14T00:38:00.753Z,10.87
2018-07-14T00:40:30.482Z,8.87
2018-07-14T00:42:59.935Z,9.30
2018-07-14T00:45:29.643Z,9.10
2018-07-14T00:47:59.421Z,9.90
2018-07-14T00:50:29.191Z,9.67
2018-07-14T00:52:59.117Z,9.90
2018-07-14T00:55:28.810Z,10.83
2018-07-14T00:57:58.542Z,9.93
2018-07-14T01:00:28.237Z,9.43
2018-07-14T01:02:57.972Z,9.40
2018-07-14T01:05:27.746Z,11.33
2018-07-14T01:07:57.544Z,11.40
2018-07-14T01:10:27.222Z,10.23
2018-07-14T01:12:57.910Z,10.27
2018-07-14T01:15:27.622Z,14.03
2018-07-14T01:17:57.332Z,8.80
2018-07-14T01:20:27.062Z,8.63
2018-07-14T01:22:56.774Z,10.03
2018-07-14T01:25:26.488Z,11.83
2018-07-14T01:27:56.172Z,9.40
2018-07-14T01:30:25.873Z,11.53
2018-07-14T01:32:55.586Z,10.67
2018-07-14T01:35:25.369Z,10.17
2018-07-14T01:37:55.044Z,9.80
2018-07-14T01:40:24.745Z,10.60
2018-07-14T01:42:54.399Z,10.20
2018-07-14T01:45:24.258Z,11.80
2018-07-14T01:47:53.594Z,9.80
2018-07-14T01:50:23.302Z,11.07
2018-07-14T01:52:52.962Z,9.10
2018-07-14T01:55:22.693Z,9.20
2018-07-14T01:57:52.408Z,10.70
2018-07-14T02:00:22.102Z,11.13
2018-07-14T02:02:51.782Z,10.70
2018-07-14T02:05:21.471Z,11.60
2018-07-14T02:07:51.179Z,10.03
2018-07-14T02:10:20.845Z,12.27
2018-07-14T02:12:50.537Z,11.03
2018-07-14T02:15:20.226Z,11.50
2018-07-14T02:17:49.962Z,10.23
2018-07-14T02:20:19.685Z,11.90
2018-07-14T02:22:49.348Z,9.73
2018-07-14T02:25:19.109Z,11.63
2018-07-14T02:27:48.795Z,11.67
2018-07-14T02:30:18.500Z,9.73
2018-07-14T02:32:48.253Z,8.97
2018-07-14T02:35:18.141Z,10.33
2018-07-14T02:37:47.801Z,9.83
2018-07-14T02:40:17.521Z,12.33
2018-07-14T02:42:47.184Z,10.60
2018-07-14T02:45:16.978Z,10.90
2018-07-14T02:47:46.608Z,10.20
2018-07-14T02:50:16.434Z,11.23
2018-07-14T02:52:46.130Z,11.23
2018-07-14T02:55:15.864Z,11.67
2018-07-14T02:57:45.557Z,11.10
2018-07-14T03:00:15.235Z,9.70
2018-07-14T03:02:44.901Z,9.30
2018-07-14T03:05:14.609Z,9.93
2018-07-14T03:07:44.453Z,9.67
2018-07-14T03:10:14.206Z,11.67
2018-07-14T03:12:44.020Z,14.23
2018-07-14T03:15:13.670Z,10.47
2018-07-14T03:17:43.368Z,12.60
2018-07-14T03:20:13.171Z,10.40
2018-07-14T03:22:42.849Z,10.73
2018-07-14T03:25:12.554Z,10.27
2018-07-14T03:27:42.313Z,10.30
2018-07-14T03:30:12.044Z,16.03
2018-07-14T03:32:43.841Z,10.70
2018-07-14T03:35:13.521Z,11.47
2018-07-14T03:37:43.181Z,15.57
2018-07-14T03:40:12.986Z,11.47
2018-07-14T03:42:42.892Z,11.17
2018-07-14T03:45:12.612Z,11.10
2018-07-14T03:47:42.382Z,10.63
2018-07-14T03:50:12.061Z,10.90
2018-07-14T03:52:41.796Z,11.87
2018-07-14T03:55:11.649Z,10.17
2018-07-14T03:57:41.345Z,10.50
2018-07-14T04:00:11.013Z,10.97
2018-07-14T04:02:40.826Z,13.17
2018-07-14T04:05:10.545Z,11.17
2018-07-14T04:07:40.245Z,11.47
2018-07-14T04:10:09.926Z,11.03
2018-07-14T04:12:39.591Z,13.27
2018-07-14T04:15:09.293Z,11.67
2018-07-14T04:17:38.996Z,10.00
2018-07-14T04:20:08.729Z,11.33
2018-07-14T04:22:38.443Z,11.07
2018-07-14T04:25:08.274Z,11.83
2018-07-14T04:27:37.935Z,11.10
2018-07-14T04:30:07.639Z,11.07
2018-07-14T04:32:37.311Z,14.00
2018-07-14T04:35:07.073Z,11.00
2018-07-14T04:37:36.751Z,10.30
2018-07-14T04:40:06.421Z,12.43
2018-07-14T04:42:36.178Z,10.23
2018-07-14T04:45:05.920Z,10.77
2018-07-14T04:47:35.618Z,10.77
2018-07-14T04:50:05.561Z,10.83
2018-07-14T04:52:35.405Z,13.33
2018-07-14T04:55:05.362Z,15.63
2018-07-14T04:57:35.162Z,11.27
2018-07-14T05:00:05.017Z,14.20
2018-07-14T05:02:34.879Z,12.47
2018-07-14T05:05:04.816Z,13.27
2018-07-14T05:07:34.529Z,21.90
2018-07-14T05:10:04.341Z,17.53
2018-07-14T05:12:33.693Z,17.30
2018-07-14T05:15:03.377Z,13.40
2018-07-14T05:17:33.069Z,13.13
2018-07-14T05:20:02.988Z,16.23
2018-07-14T05:22:32.685Z,16.40
2018-07-14T05:25:02.358Z,16.37
2018-07-14T05:27:32.117Z,16.10
2018-07-14T05:30:01.862Z,15.50
2018-07-14T05:32:31.731Z,15.90
2018-07-14T05:35:01.445Z,14.10
2018-07-14T05:37:31.108Z,14.97
2018-07-14T05:40:00.814Z,13.90
2018-07-14T05:42:30.725Z,15.67
2018-07-14T05:45:00.419Z,14.73
2018-07-14T05:47:29.783Z,15.37
2018-07-14T05:49:59.414Z,14.27
2018-07-14T05:52:29.102Z,15.60
2018-07-14T05:54:58.984Z,15.03
2018-07-14T05:57:28.659Z,15.87
2018-07-14T05:59:58.370Z,14.40
2018-07-14T06:02:28.095Z,15.33
2018-07-14T06:04:57.888Z,15.10
2018-07-14T06:07:27.673Z,13.40
2018-07-14T06:09:57.378Z,14.63
2018-07-14T06:12:27.070Z,16.53
2018-07-14T06:14:56.785Z,14.40
2018-07-14T06:17:26.459Z,17.60
2018-07-14T06:19:56.248Z,16.10
2018-07-14T06:22:26.072Z,15.50
2018-07-14T06:24:55.756Z,14.03
2018-07-14T06:27:25.474Z,14.40
2018-07-14T06:29:55.193Z,13.93
2018-07-14T06:32:24.964Z,15.43
2018-07-14T06:34:54.649Z,14.13
2018-07-14T06:37:24.462Z,14.63
2018-07-14T06:39:54.473Z,14.30
2018-07-14T06:42:24.318Z,14.13
2018-07-14T06:44:54.678Z,15.17
2018-07-14T06:47:24.386Z,14.93
2018-07-14T06:49:54.217Z,14.20
2018-07-14T06:52:24.128Z,14.90
2018-07-14T06:54:53.931Z,13.93
2018-07-14T06:57:23.678Z,15.23
2018-07-14T06:59:53.393Z,15.70
2018-07-14T07:02:23.126Z,15.13
2018-07-14T07:04:53.003Z,15.30
2018-07-14T07:07:22.986Z,13.93
2018-07-14T07:09:52.787Z,14.40
2018-07-14T07:12:22.488Z,15.87
2018-07-14T07:14:52.462Z,13.70
2018-07-14T07:17:21.080Z,16.87
2018-07-14T07:19:50.725Z,14.63
2018-07-14T07:22:20.395Z,13.40
2018-07-14T07:24:50.090Z,16.10
2018-07-14T07:27:20.030Z,13.20
2018-07-14T07:29:49.766Z,12.60
2018-07-14T07:32:19.454Z,15.27
2018-07-14T07:34:49.134Z,16.20
2018-07-14T07:37:18.669Z,12.90
2018-07-14T07:39:48.331Z,12.80
2018-07-14T07:42:18.055Z,15.77
2018-07-14T07:44:47.673Z,13.37
2018-07-14T07:47:17.390Z,14.17
2018-07-14T07:49:47.254Z,11.63
2018-07-14T07:52:16.994Z,14.03
2018-07-14T07:54:46.659Z,13.17
2018-07-14T07:57:16.400Z,11.87
2018-07-14T07:59:46.098Z,16.87
2018-07-14T08:02:15.928Z,12.20
2018-07-14T08:04:45.618Z,13.10
2018-07-14T08:07:15.273Z,12.00
2018-07-14T08:09:45.080Z,12.30
2018-07-14T08:12:14.971Z,13.93
2018-07-14T08:14:44.769Z,13.90
2018-07-14T08:17:14.456Z,12.20
2018-07-14T08:19:44.160Z,11.67
2018-07-14T08:22:14.067Z,14.13
2018-07-14T08:24:43.809Z,13.83
2018-07-14T08:27:13.514Z,13.50
2018-07-14T08:29:43.208Z,12.20
2018-07-14T08:32:13.035Z,12.57
2018-07-14T08:34:42.839Z,13.00
2018-07-14T08:37:12.684Z,11.63
2018-07-14T08:39:42.395Z,12.80
2018-07-14T08:42:12.214Z,14.13
2018-07-14T08:44:41.921Z,11.90
2018-07-14T08:47:11.698Z,10.80
2018-07-14T08:49:41.476Z,11.53
2018-07-14T08:52:11.332Z,12.13
2018-07-14T08:54:40.955Z,10.47
2018-07-14T08:57:10.644Z,12.10
2018-07-14T08:59:40.427Z,11.17
2018-07-14T09:02:10.161Z,11.73
2018-07-14T09:04:39.895Z,14.03
2018-07-14T09:07:09.650Z,11.90
2018-07-14T09:09:39.381Z,10.40
2018-07-14T09:12:09.146Z,10.50
2018-07-14T09:14:38.846Z,13.67
2018-07-14T09:17:08.632Z,12.50
2018-07-14T09:19:38.319Z,12.90
2018-07-14T09:22:08.039Z,11.77
2018-07-14T09:24:37.749Z,11.90
2018-07-14T09:27:07.585Z,15.53
2018-07-14T09:29:37.346Z,12.40
2018-07-14T09:32:07.063Z,9.87
2018-07-14T09:34:37.056Z,12.47
2018-07-14T09:37:06.872Z,11.97
2018-07-14T09:39:36.598Z,12.67
2018-07-14T09:42:06.427Z,10.43
2018-07-14T09:44:36.126Z,10.23
2018-07-14T09:47:05.929Z,11.23
2018-07-14T09:49:35.609Z,9.90
2018-07-14T09:52:05.515Z,11.47
2018-07-14T09:54:35.205Z,11.50
2018-07-14T09:57:05.294Z,10.80
2018-07-14T09:59:35.026Z,13.87
2018-07-14T10:02:04.805Z,12.27
2018-07-14T10:04:34.665Z,14.93
2018-07-14T10:07:04.398Z,11.10
2018-07-14T10:09:34.176Z,12.20
2018-07-14T10:12:03.937Z,15.83
2018-07-14T10:14:33.676Z,11.53
2018-07-14T10:17:03.505Z,11.63
2018-07-14T10:19:33.234Z,11.90
2018-07-14T10:22:02.968Z,13.83
2018-07-14T10:24:32.690Z,12.80
2018-07-14T10:27:02.410Z,12.67
2018-07-14T10:29:32.166Z,10.93
2018-07-14T10:32:01.949Z,14.60
2018-07-14T10:34:31.836Z,11.67
2018-07-14T10:37:01.582Z,10.57
2018-07-14T10:39:31.399Z,11.63
2018-07-14T10:42:01.514Z,9.80
2018-07-14T10:44:31.228Z,10.50
2018-07-14T10:47:01.000Z,13.70
2018-07-14T10:49:30.665Z,9.60
2018-07-14T10:52:00.416Z,11.33
2018-07-14T10:54:30.137Z,13.27
2018-07-14T10:57:00.048Z,13.77
2018-07-14T10:59:29.796Z,11.70
2018-07-14T11:01:59.924Z,11.43
2018-07-14T11:04:29.773Z,10.60
2018-07-14T11:06:59.437Z,10.30
2018-07-14T11:09:29.172Z,10.70
2018-07-14T11:11:58.889Z,11.97
2018-07-14T11:14:28.588Z,10.93
2018-07-14T11:16:58.342Z,12.93
2018-07-14T11:19:28.279Z,9.90
2018-07-14T11:21:57.998Z,10.80
2018-07-14T11:24:27.765Z,11.57
2018-07-14T11:26:57.506Z,12.37
2018-07-14T11:29:27.226Z,23.57
2018-07-14T11:31:56.932Z,10.30
2018-07-14T11:34:26.603Z,11.53
2018-07-14T11:36:56.277Z,13.03
2018-07-14T11:39:25.978Z,18.47
2018-07-14T11:41:55.777Z,11.70
2018-07-14T11:44:25.707Z,13.00
2018-07-14T11:46:55.073Z,11.57
2018-07-14T11:49:24.829Z,10.90
2018-07-14T11:51:54.549Z,12.23
2018-07-14T11:54:24.285Z,12.63
2018-07-14T11:56:53.976Z,12.00
2018-07-14T11:59:24.069Z,12.00
2018-07-14T12:01:53.836Z,17.10
2018-07-14T12:04:23.717Z,12.37
2018-07-14T12:06:53.424Z,10.93
2018-07-14T12:09:23.864Z,11.57
2018-07-14T12:11:53.618Z,12.47
2018-07-14T12:14:23.426Z,18.13
2018-07-14T12:16:53.140Z,12.33
2018-07-14T12:19:22.970Z,13.57
2018-07-14T12:21:52.761Z,12.97
2018-07-14T12:24:22.505Z,11.07
2018-07-14T12:26:52.210Z,9.37
2018-07-14T12:29:21.916Z,12.13
2018-07-14T12:31:51.617Z,8.67
2018-07-14T12:34:21.337Z,11.03
2018-07-14T12:36:51.077Z,11.10
2018-07-14T12:39:20.784Z,9.23
2018-07-14T12:41:50.457Z,12.90
2018-07-14T12:44:20.163Z,16.60
2018-07-14T12:46:49.530Z,9.53
2018-07-14T12:49:19.245Z,12.83
2018-07-14T12:51:48.961Z,9.57
2018-07-14T12:54:18.691Z,13.43
2018-07-14T12:56:48.497Z,8.90
2018-07-14T12:59:18.282Z,10.07
2018-07-14T13:01:48.042Z,9.17
2018-07-14T13:04:17.865Z,9.07
2018-07-14T13:06:47.665Z,7.80
2018-07-14T13:09:17.412Z,9.00
2018-07-14T13:11:47.234Z,13.23
2018-07-14T13:14:17.060Z,12.97
2018-07-14T13:16:46.814Z,9.90
2018-07-14T13:19:16.557Z,8.50
2018-07-14T13:21:46.346Z,8.93
2018-07-14T13:24:16.083Z,10.03
2018-07-14T13:26:45.782Z,10.90
2018-07-14T13:29:15.725Z,13.97
2018-07-14T13:31:46.209Z,9.03
2018-07-14T13:34:16.053Z,12.60
2018-07-14T13:36:45.693Z,7.83
2018-07-14T13:39:15.064Z,13.03
2018-07-14T13:41:44.740Z,7.50
2018-07-14T13:44:14.578Z,8.27
2018-07-14T13:46:44.432Z,9.57
2018-07-14T13:49:13.849Z,17.50
2018-07-14T13:51:43.591Z,8.70
2018-07-14T13:54:13.379Z,8.00
2018-07-14T13:56:43.102Z,11.33
2018-07-14T13:59:12.838Z,6.87
2018-07-14T14:01:42.619Z,6.57
2018-07-14T14:04:12.382Z,7.10
2018-07-14T14:06:42.194Z,11.27
2018-07-14T14:09:11.956Z,7.10
2018-07-14T14:11:41.621Z,9.63
2018-07-14T14:14:11.514Z,6.77
2018-07-14T14:16:41.331Z,6.60
2018-07-14T14:19:11.080Z,9.67
2018-07-14T14:21:40.739Z,5.53
2018-07-14T14:24:10.480Z,6.47
2018-07-14T14:26:40.218Z,5.43
2018-07-14T14:29:10.007Z,5.57
2018-07-14T14:31:39.693Z,6.60
2018-07-14T14:34:10.216Z,5.50
2018-07-14T14:36:39.996Z,6.97
2018-07-14T14:39:10.225Z,7.13
2018-07-14T14:41:40.037Z,5.70
2018-07-14T14:44:09.709Z,6.90
2018-07-14T14:46:39.561Z,5.37
2018-07-14T14:49:09.266Z,5.93
2018-07-14T14:51:38.937Z,4.53
2018-07-14T14:54:08.398Z,4.87
2018-07-14T14:56:38.245Z,6.87
2018-07-14T14:59:08.002Z,4.30
2018-07-14T15:01:37.762Z,4.30
2018-07-14T15:04:13.717Z,5.00
2018-07-14T15:06:43.441Z,8.20
2018-07-14T15:09:13.826Z,5.77
2018-07-14T15:11:43.535Z,3.77
2018-07-14T15:14:13.490Z,5.13
2018-07-14T15:16:43.417Z,8.43
2018-07-14T15:19:13.377Z,5.30
2018-07-14T15:21:43.147Z,6.60
2018-07-14T15:24:12.860Z,4.40
2018-07-14T15:26:42.575Z,4.40
2018-07-14T15:29:12.371Z,4.93
2018-07-14T15:31:42.227Z,8.67
2018-07-14T15:34:11.945Z,4.80
2018-07-14T15:36:41.875Z,4.13
2018-07-14T15:39:11.581Z,5.60
2018-07-14T15:41:41.439Z,7.00
2018-07-14T15:44:11.167Z,6.30
2018-07-14T15:46:40.985Z,6.77
2018-07-14T15:49:10.663Z,3.73
2018-07-14T15:51:40.404Z,5.37
2018-07-14T15:54:10.086Z,2.80
2018-07-14T15:56:39.805Z,3.27
2018-07-14T15:59:09.489Z,3.70
2018-07-14T16:01:39.333Z,4.03
2018-07-14T16:04:09.074Z,3.60
2018-07-14T16:06:38.893Z,5.03
2018-07-14T16:09:09.033Z,4.37
2018-07-14T16:11:38.847Z,4.03
2018-07-14T16:14:08.511Z,4.87
2018-07-14T16:16:38.197Z,3.10
2018-07-14T16:19:07.964Z,4.63
2018-07-14T16:21:37.626Z,4.07
2018-07-14T16:24:07.020Z,5.57
2018-07-14T16:26:36.803Z,14.67
2018-07-14T16:29:06.633Z,2.90
2018-07-14T16:31:36.503Z,3.50
2018-07-14T16:34:06.337Z,11.73
2018-07-14T16:36:36.167Z,9.70
2018-07-14T16:39:09.136Z,3.33
2018-07-14T16:41:39.357Z,4.53
2018-07-14T16:44:09.297Z,2.87
2018-07-14T16:46:39.082Z,3.23
2018-07-14T16:49:08.773Z,3.10
2018-07-14T16:51:38.611Z,4.10
2018-07-14T16:54:08.393Z,4.53
2018-07-14T16:56:38.098Z,3.10
2018-07-14T16:59:07.878Z,5.20
2018-07-14T17:01:37.591Z,5.47
2018-07-14T17:04:07.313Z,4.03
2018-07-14T17:06:37.010Z,4.50
2018-07-14T17:09:08.120Z,4.63
2018-07-14T17:11:37.857Z,3.20
2018-07-14T17:14:07.805Z,3.27
2018-07-14T17:16:37.389Z,3.50
2018-07-14T17:19:07.284Z,5.33
2018-07-14T17:21:36.980Z,7.27
2018-07-14T17:24:06.774Z,3.47
2018-07-14T17:26:36.515Z,7.60
2018-07-14T17:29:06.153Z,4.67
2018-07-14T17:31:35.867Z,5.70
2018-07-14T17:34:05.716Z,4.83
2018-07-14T17:36:35.781Z,5.77
2018-07-14T17:39:07.059Z,7.60
2018-07-14T17:41:36.839Z,5.03
2018-07-14T17:44:06.810Z,5.37
2018-07-14T17:46:36.528Z,4.20
2018-07-14T17:49:06.266Z,4.80
2018-07-14T17:51:36.085Z,5.43
2018-07-14T17:54:05.758Z,4.57
2018-07-14T17:56:35.450Z,4.53
2018-07-14T17:59:08.041Z,4.07
2018-07-14T18:01:37.824Z,5.97
2018-07-14T18:04:07.514Z,11.90
2018-07-14T18:06:38.406Z,5.87
2018-07-14T18:09:10.266Z,9.50
2018-07-14T18:11:40.520Z,6.47
2018-07-14T18:14:10.324Z,5.73
2018-07-14T18:16:40.042Z,3.90
2018-07-14T18:19:09.713Z,7.90
2018-07-14T18:21:39.622Z,9.50
2018-07-14T18:24:09.383Z,5.27
2018-07-14T18:26:39.189Z,4.87
2018-07-14T18:29:08.902Z,7.37
2018-07-14T18:31:38.734Z,8.87
2018-07-14T18:34:08.461Z,6.20
2018-07-14T18:36:38.136Z,9.40
2018-07-14T18:39:09.100Z,4.57
2018-07-14T18:41:39.064Z,7.13
2018-07-14T18:44:09.093Z,4.90
2018-07-14T18:46:39.023Z,7.10
2018-07-14T18:49:08.855Z,6.63
2018-07-14T18:51:38.614Z,3.90
2018-07-14T18:54:08.506Z,7.33
2018-07-14T18:56:38.394Z,8.40
2018-07-14T18:59:08.238Z,7.30
2018-07-14T19:01:38.038Z,10.07
2018-07-14T19:04:08.111Z,10.10
2018-07-14T19:06:38.142Z,9.03
2018-07-14T19:09:08.132Z,19.07
2018-07-14T19:11:37.913Z,10.53
2018-07-14T19:14:07.758Z,9.60
2018-07-14T19:16:37.930Z,7.70
2018-07-14T19:19:07.414Z,9.10
2018-07-14T19:21:37.254Z,9.80
2018-07-14T19:24:07.147Z,15.17
2018-07-14T19:26:37.065Z,7.10
2018-07-14T19:29:07.044Z,8.20
2018-07-14T19:31:36.842Z,9.83
2018-07-14T19:34:06.782Z,6.90
2018-07-14T19:36:36.678Z,10.33
2018-07-14T19:39:07.973Z,9.07
2018-07-14T19:41:37.870Z,7.40
2018-07-14T19:44:07.701Z,10.70
2018-07-14T19:46:37.618Z,10.90
2018-07-14T19:49:07.792Z,9.10
2018-07-14T19:51:37.762Z,8.53
2018-07-14T19:54:07.665Z,7.27
2018-07-14T19:56:37.376Z,4.87
2018-07-14T19:59:07.583Z,8.13
2018-07-14T20:01:37.289Z,6.67
2018-07-14T20:04:07.270Z,4.83
2018-07-14T20:06:37.134Z,7.63
2018-07-14T20:09:07.911Z,4.80
2018-07-14T20:11:37.850Z,5.03
2018-07-14T20:14:07.906Z,6.03
2018-07-14T20:16:37.294Z,5.90
2018-07-14T20:19:07.461Z,6.13
2018-07-14T20:21:37.248Z,5.80
2018-07-14T20:24:07.341Z,4.67
2018-07-14T20:26:37.091Z,4.60
2018-07-14T20:29:07.626Z,5.07
2018-07-14T20:31:37.393Z,4.10
2018-07-14T20:34:07.398Z,7.20
2018-07-14T20:36:37.072Z,5.63
2018-07-14T20:39:07.790Z,4.30
2018-07-14T20:41:37.757Z,4.63
2018-07-14T20:44:07.529Z,7.40
2018-07-14T20:46:37.286Z,5.10
2018-07-14T20:49:07.182Z,6.53
2018-07-14T20:51:36.937Z,5.20
2018-07-14T20:54:07.133Z,5.10
2018-07-14T20:56:37.932Z,7.87
2018-07-14T20:59:07.767Z,5.57
2018-07-14T21:01:37.904Z,4.70
2018-07-14T21:04:07.732Z,9.33
2018-07-14T21:06:38.125Z,5.90
2018-07-14T21:09:08.334Z,5.87
2018-07-14T21:11:38.871Z,5.67
2018-07-14T21:14:08.563Z,5.53
2018-07-14T21:16:38.393Z,6.10
2018-07-14T21:19:08.089Z,5.27
2018-07-14T21:21:37.797Z,6.83
2018-07-14T21:24:07.641Z,5.07
2018-07-14T21:26:37.084Z,5.37
2018-07-14T21:29:06.793Z,5.80
2018-07-14T21:31:36.785Z,5.50
2018-07-14T21:34:06.568Z,4.90
2018-07-14T21:36:36.259Z,8.03
2018-07-14T21:39:07.815Z,5.10
2018-07-14T21:41:37.540Z,6.17
2018-07-14T21:44:07.231Z,5.80
2018-07-14T21:46:36.953Z,9.23
2018-07-14T21:49:06.815Z,10.93
2018-07-14T21:51:36.585Z,7.40
2018-07-14T21:54:06.408Z,5.77
2018-07-14T21:56:36.306Z,6.93
2018-07-14T21:59:06.163Z,5.40
2018-07-14T22:01:40.893Z,5.97
2018-07-14T22:04:12.690Z,5.00
2018-07-14T22:06:42.100Z,5.97
2018-07-14T22:09:12.117Z,4.20
2018-07-14T22:11:41.890Z,6.03
2018-07-14T22:14:11.693Z,6.40
2018-07-14T22:16:41.628Z,5.07
2018-07-14T22:19:11.270Z,5.43
2018-07-14T22:21:41.036Z,7.63
2018-07-14T22:24:10.754Z,3.73
2018-07-14T22:26:40.491Z,4.50
2018-07-14T22:29:10.214Z,4.50
2018-07-14T22:31:39.998Z,5.33
2018-07-14T22:34:09.823Z,5.80
2018-07-14T22:36:39.497Z,4.93
2018-07-14T22:39:09.215Z,4.70
2018-07-14T22:41:39.066Z,4.33
2018-07-14T22:44:08.741Z,4.43
2018-07-14T22:46:38.429Z,6.83
2018-07-14T22:49:08.089Z,4.63
2018-07-14T22:51:37.873Z,5.97
2018-07-14T22:54:07.630Z,4.57
2018-07-14T22:56:37.502Z,5.03
2018-07-14T22:59:07.309Z,7.37
2018-07-14T23:01:37.075Z,7.10
2018-07-14T23:04:06.854Z,5.10
2018-07-14T23:06:36.634Z,5.90
2018-07-14T23:09:07.361Z,4.63
2018-07-14T23:11:37.262Z,6.77
2018-07-14T23:14:06.929Z,9.03
2018-07-14T23:16:37.071Z,4.47
2018-07-14T23:19:07.794Z,5.63
2018-07-14T23:21:37.450Z,5.17
2018-07-14T23:24:07.266Z,5.50
2018-07-14T23:26:36.954Z,4.63
2018-07-14T23:29:06.657Z,4.37
2018-07-14T23:31:36.368Z,4.87
2018-07-14T23:34:06.155Z,4.73
2018-07-14T23:36:35.991Z,4.10
2018-07-14T23:39:08.078Z,5.13
2018-07-14T23:41:38.615Z,9.53
2018-07-14T23:44:08.648Z,5.33
2018-07-14T23:46:38.294Z,5.33
2018-07-14T23:49:08.388Z,5.50
2018-07-14T23:51:38.142Z,4.13
2018-07-14T23:54:08.461Z,8.53
2018-07-14T23:56:38.266Z,4.37
2018-07-14T23:59:08.042Z,4.50
